createdAt,value
2017-05-23T00:00:19.455Z,14.70
2017-05-23T00:02:47.738Z,14.70
2017-05-23T00:05:16.311Z,14.70
2017-05-23T00:07:44.595Z,14.60
2017-05-23T00:10:12.875Z,14.60
2017-05-23T00:12:41.474Z,14.60
2017-05-23T00:15:09.760Z,14.50
2017-05-23T00:17:38.143Z,14.40
2017-05-23T00:20:06.818Z,14.50
2017-05-23T00:22:35.106Z,14.50
2017-05-23T00:25:03.391Z,14.40
2017-05-23T00:27:32.012Z,14.30
2017-05-23T00:30:00.296Z,14.30
2017-05-23T00:32:28.599Z,14.30
2017-05-23T00:34:57.214Z,14.20
2017-05-23T00:37:25.539Z,14.20
2017-05-23T00:39:53.836Z,14.10
2017-05-23T00:42:22.964Z,14.00
2017-05-23T00:44:51.252Z,14.00
2017-05-23T00:47:19.547Z,14.00
2017-05-23T00:49:48.120Z,13.90
2017-05-23T00:52:16.429Z,13.90
2017-05-23T00:54:44.716Z,13.90
2017-05-23T00:57:13.304Z,13.80
2017-05-23T00:59:42.017Z,13.80
2017-05-23T01:02:10.310Z,13.80
2017-05-23T01:04:38.997Z,13.80
2017-05-23T01:07:07.292Z,13.70
2017-05-23T01:09:35.599Z,13.70
2017-05-23T01:12:04.288Z,13.60
2017-05-23T01:14:32.576Z,13.60
2017-05-23T01:17:00.887Z,13.70
2017-05-23T01:19:29.571Z,13.70
2017-05-23T01:21:57.851Z,13.70
2017-05-23T01:24:26.146Z,13.60
2017-05-23T01:26:54.778Z,13.50
2017-05-23T01:29:23.064Z,13.40
2017-05-23T01:31:51.375Z,13.40
2017-05-23T01:34:20.055Z,13.40
2017-05-23T01:36:48.351Z,13.40
2017-05-23T01:39:16.646Z,13.40
2017-05-23T01:41:45.348Z,13.50
2017-05-23T01:44:13.635Z,13.40
2017-05-23T01:46:41.920Z,13.40
2017-05-23T01:49:10.540Z,13.40
2017-05-23T01:51:38.828Z,13.40
2017-05-23T01:54:07.141Z,13.40
2017-05-23T01:56:35.831Z,13.50
2017-05-23T01:59:04.132Z,13.40
2017-05-23T02:01:32.424Z,13.40
2017-05-23T02:04:01.023Z,13.40
2017-05-23T02:06:29.321Z,13.40
2017-05-23T02:08:57.624Z,13.40
2017-05-23T02:11:26.241Z,13.40
2017-05-23T02:13:54.532Z,13.40
2017-05-23T02:16:22.836Z,13.40
2017-05-23T02:18:51.513Z,13.30
2017-05-23T02:21:19.796Z,13.30
2017-05-23T02:23:48.089Z,13.30
2017-05-23T02:26:16.803Z,13.30
2017-05-23T02:28:45.119Z,13.10
2017-05-23T02:31:13.415Z,13.10
2017-05-23T02:33:42.097Z,13.00
2017-05-23T02:36:10.388Z,12.90
2017-05-23T02:38:38.680Z,12.90
2017-05-23T02:41:07.390Z,12.90
2017-05-23T02:43:35.703Z,12.90
2017-05-23T02:46:04.009Z,12.90
2017-05-23T02:48:32.624Z,12.80
2017-05-23T02:51:00.917Z,12.80
2017-05-23T02:53:29.212Z,12.80
2017-05-23T02:55:57.897Z,12.80
2017-05-23T02:58:26.236Z,12.80
2017-05-23T03:00:54.548Z,12.70
2017-05-23T03:03:23.273Z,12.60
2017-05-23T03:05:51.640Z,12.60
2017-05-23T03:08:19.948Z,12.40
2017-05-23T03:10:48.567Z,12.40
2017-05-23T03:13:16.863Z,12.40
2017-05-23T03:15:45.148Z,12.50
2017-05-23T03:18:13.767Z,12.50
2017-05-23T03:20:42.078Z,12.50
2017-05-23T03:23:10.378Z,12.40
2017-05-23T03:25:38.972Z,12.40
2017-05-23T03:28:07.280Z,12.40
2017-05-23T03:30:35.589Z,12.40
2017-05-23T03:33:04.288Z,12.40
2017-05-23T03:35:32.686Z,12.40
2017-05-23T03:38:00.996Z,12.40
2017-05-23T03:40:29.596Z,12.40
2017-05-23T03:42:58.002Z,12.50
2017-05-23T03:45:26.316Z,12.50
2017-05-23T03:47:54.933Z,12.60
2017-05-23T03:50:23.235Z,12.60
2017-05-23T03:52:51.533Z,12.60
2017-05-23T03:55:20.156Z,12.70
2017-05-23T03:57:48.459Z,12.80
2017-05-23T04:00:16.751Z,12.80
2017-05-23T04:02:45.331Z,12.90
2017-05-23T04:05:13.652Z,12.90
2017-05-23T04:07:41.944Z,13.00
2017-05-23T04:10:10.616Z,13.00
2017-05-23T04:12:39.038Z,13.10
2017-05-23T04:15:07.348Z,13.10
2017-05-23T04:17:36.026Z,13.20
2017-05-23T04:20:04.332Z,13.20
2017-05-23T04:22:32.630Z,13.30
2017-05-23T04:25:01.292Z,13.30
2017-05-23T04:27:29.580Z,13.40
2017-05-23T04:29:57.895Z,13.60
2017-05-23T04:32:26.588Z,13.70
2017-05-23T04:34:54.924Z,13.90
2017-05-23T04:37:23.252Z,14.00
2017-05-23T04:39:51.968Z,14.10
2017-05-23T04:42:20.256Z,14.30
2017-05-23T04:44:48.545Z,14.40
2017-05-23T04:47:17.113Z,14.40
2017-05-23T04:49:45.417Z,14.40
2017-05-23T04:52:13.707Z,14.50
2017-05-23T04:54:43.612Z,14.60
2017-05-23T04:57:12.086Z,14.70
2017-05-23T04:59:40.380Z,14.80
2017-05-23T05:02:09.001Z,14.90
2017-05-23T05:04:37.305Z,14.90
2017-05-23T05:07:05.599Z,15.10
2017-05-23T05:09:34.302Z,15.20
2017-05-23T05:12:02.596Z,15.30
2017-05-23T05:14:30.897Z,15.40
2017-05-23T05:16:59.496Z,15.50
2017-05-23T05:19:27.793Z,15.70
2017-05-23T05:21:56.101Z,15.80
2017-05-23T05:24:24.720Z,15.90
2017-05-23T05:26:53.137Z,16.00
2017-05-23T05:29:21.440Z,16.10
2017-05-23T05:31:50.066Z,16.30
2017-05-23T05:34:18.354Z,16.40
2017-05-23T05:36:46.649Z,16.40
2017-05-23T05:39:15.361Z,16.40
2017-05-23T05:41:43.664Z,16.60
2017-05-23T05:44:11.952Z,16.60
2017-05-23T05:46:40.564Z,16.70
2017-05-23T05:49:08.868Z,16.70
2017-05-23T05:51:37.157Z,16.90
2017-05-23T05:54:05.846Z,17.00
2017-05-23T05:56:34.148Z,17.10
2017-05-23T05:59:02.449Z,17.10
2017-05-23T06:01:31.149Z,17.30
2017-05-23T06:03:59.449Z,17.40
2017-05-23T06:06:27.754Z,17.40
2017-05-23T06:08:56.442Z,17.60
2017-05-23T06:11:24.745Z,17.90
2017-05-23T06:14:14.164Z,18.00
2017-05-23T06:16:42.463Z,18.20
2017-05-23T06:19:10.788Z,18.40
2017-05-23T06:21:39.384Z,18.60
2017-05-23T06:24:07.663Z,18.80
2017-05-23T06:26:35.950Z,18.90
2017-05-23T06:29:04.633Z,19.00
2017-05-23T06:31:32.926Z,19.10
2017-05-23T06:34:01.220Z,19.20
2017-05-23T06:36:29.839Z,19.20
2017-05-23T06:38:58.137Z,19.20
2017-05-23T06:41:26.426Z,19.30
2017-05-23T06:43:55.030Z,19.50
2017-05-23T06:46:23.358Z,19.60
2017-05-23T06:48:51.670Z,19.90
2017-05-23T06:51:20.315Z,20.10
2017-05-23T06:53:48.600Z,20.20
2017-05-23T06:56:16.897Z,20.30
2017-05-23T06:58:45.492Z,20.30
2017-05-23T07:01:13.784Z,20.50
2017-05-23T07:03:42.077Z,20.60
2017-05-23T07:06:10.666Z,20.50
2017-05-23T07:08:38.956Z,20.60
2017-05-23T07:11:07.238Z,20.70
2017-05-23T07:13:35.878Z,20.90
2017-05-23T07:16:04.165Z,21.00
2017-05-23T07:18:32.507Z,21.20
2017-05-23T07:21:01.196Z,21.40
2017-05-23T07:23:29.812Z,21.50
2017-05-23T07:25:58.103Z,21.70
2017-05-23T07:28:26.772Z,21.80
2017-05-23T07:30:55.051Z,22.10
2017-05-23T07:33:23.400Z,22.30
2017-05-23T07:35:52.092Z,22.40
2017-05-23T07:38:20.384Z,22.50
2017-05-23T07:40:48.665Z,22.60
2017-05-23T07:43:17.370Z,22.70
2017-05-23T07:45:45.668Z,22.90
2017-05-23T07:48:13.960Z,23.00
2017-05-23T07:50:42.560Z,23.20
2017-05-23T07:53:10.860Z,23.40
2017-05-23T07:55:39.156Z,23.40
2017-05-23T07:58:07.744Z,23.50
2017-05-23T08:00:36.105Z,23.70
2017-05-23T08:03:04.391Z,23.80
2017-05-23T08:05:33.040Z,24.00
2017-05-23T08:08:01.325Z,23.80
2017-05-23T08:10:29.611Z,24.10
2017-05-23T08:12:58.199Z,24.40
2017-05-23T08:15:26.487Z,24.40
2017-05-23T08:17:54.792Z,24.70
2017-05-23T08:20:23.419Z,24.80
2017-05-23T08:22:51.695Z,25.10
2017-05-23T08:25:19.968Z,25.20
2017-05-23T08:27:48.621Z,25.40
2017-05-23T08:30:16.907Z,25.40
2017-05-23T08:32:45.184Z,25.60
2017-05-23T08:35:13.809Z,25.60
2017-05-23T08:37:42.100Z,25.60
2017-05-23T08:40:10.384Z,25.60
2017-05-23T08:42:39.012Z,25.60
2017-05-23T08:45:07.299Z,25.60
2017-05-23T08:47:35.591Z,25.70
2017-05-23T08:50:04.296Z,26.00
